Time;durP1;ratioP1;P1;durP2;ratioP2;P2;SDS_P1;SDS_P2;PMS_P1;PMS_P2;Temp;Humidity;BMP_temperature;BMP_pressure;BME280_temperature;BME280_humidity;BME280_pressure;Samples;Min_cycle;Max_cycle;Signal;HPM_P1;HPM_P2
2023/07/25 01:20:12;;;;;;;16.95;4.80;;;;;;;14.03;100.00;100347.75;5025284;28;20147;-69
2023/07/25 01:22:40;;;;;;;15.68;4.15;;;;;;;14.00;100.00;100345.84;5029861;28;20053;-72
2023/07/25 01:25:08;;;;;;;15.23;4.50;;;;;;;13.89;100.00;100330.66;5028570;28;20402;-70
2023/07/25 01:27:34;;;;;;;14.70;4.57;;;;;;;13.95;100.00;100337.25;5029223;28;20537;-71
2023/07/25 01:30:01;;;;;;;13.90;4.32;;;;;;;13.93;100.00;100331.31;5029699;28;20049;-69
2023/07/25 01:32:30;;;;;;;13.00;5.53;;;;;;;13.97;100.00;100335.56;5029715;28;20099;-71
2023/07/25 01:34:56;;;;;;;9.82;4.15;;;;;;;13.91;100.00;100328.97;5012156;28;20057;-70
2023/07/25 01:37:23;;;;;;;17.05;4.65;;;;;;;13.97;100.00;100334.75;5028964;28;20480;-72
2023/07/25 01:39:50;;;;;;;16.15;4.57;;;;;;;13.88;100.00;100334.69;5048539;28;20040;-69
2023/07/25 01:42:16;;;;;;;10.63;4.57;;;;;;;13.85;100.00;100341.97;5048759;28;20128;-69
2023/07/25 01:44:43;;;;;;;15.07;4.43;;;;;;;13.88;100.00;100326.31;5040114;28;20048;-69
2023/07/25 01:47:09;;;;;;;14.40;4.57;;;;;;;13.91;100.00;100320.59;5041969;28;20069;-70
2023/07/25 01:49:36;;;;;;;11.60;4.05;;;;;;;13.91;100.00;100331.75;5049336;28;20049;-70
2023/07/25 01:52:03;;;;;;;16.05;4.70;;;;;;;13.93;100.00;100322.94;5049359;28;20091;-69
2023/07/25 01:54:29;;;;;;;13.82;5.10;;;;;;;13.93;100.00;100323.72;5048892;28;20532;-72
2023/07/25 01:56:56;;;;;;;13.00;4.85;;;;;;;13.86;100.00;100312.78;5047807;28;20056;-71
2023/07/25 01:59:22;;;;;;;13.02;5.03;;;;;;;13.86;100.00;100312.00;5045851;28;20047;-70
2023/07/25 02:01:49;;;;;;;13.63;5.15;;;;;;;13.86;100.00;100301.59;5043940;28;20049;-71
2023/07/25 02:04:15;;;;;;;11.25;4.35;;;;;;;13.88;100.00;100310.28;5042943;28;20138;-70
2023/07/25 02:06:42;;;;;;;13.15;4.90;;;;;;;13.86;100.00;100300.81;5048685;28;20061;-70
2023/07/25 02:09:08;;;;;;;14.13;5.22;;;;;;;13.87;100.00;100302.41;5049183;28;20049;-70
2023/07/25 02:11:35;;;;;;;12.57;5.03;;;;;;;13.79;100.00;100312.22;5048827;28;20087;-69
2023/07/25 02:14:01;;;;;;;12.73;4.75;;;;;;;13.70;100.00;100298.94;5048393;28;20140;-68
2023/07/25 02:16:28;;;;;;;12.23;5.05;;;;;;;13.72;100.00;100295.69;5046001;28;20040;-72
2023/07/25 02:18:55;;;;;;;13.40;4.68;;;;;;;13.74;100.00;100304.41;5048408;28;20049;-70
2023/07/25 02:21:21;;;;;;;15.60;4.95;;;;;;;13.74;100.00;100301.63;5048858;28;20463;-69
2023/07/25 02:23:48;;;;;;;14.27;5.22;;;;;;;13.69;100.00;100300.19;5041973;28;20532;-72
2023/07/25 02:26:15;;;;;;;13.80;4.75;;;;;;;13.69;100.00;100302.97;5040708;28;20128;-70
2023/07/25 02:28:41;;;;;;;16.08;5.10;;;;;;;13.65;100.00;100298.72;5047082;28;20128;-70
2023/07/25 02:31:08;;;;;;;21.13;5.15;;;;;;;13.52;100.00;100287.56;5029603;28;20103;-68
2023/07/25 02:33:35;;;;;;;14.38;4.63;;;;;;;13.49;100.00;100288.47;5048290;28;20497;-71
2023/07/25 02:36:02;;;;;;;21.67;5.50;;;;;;;13.46;100.00;100294.94;5048529;28;20049;-69
2023/07/25 02:38:28;;;;;;;19.13;5.65;;;;;;;13.44;100.00;100288.25;5047703;28;20049;-70
2023/07/25 02:40:55;;;;;;;20.95;6.43;;;;;;;13.42;100.00;100293.44;5049608;28;20182;-70
2023/07/25 02:43:22;;;;;;;14.65;5.10;;;;;;;13.35;100.00;100299.25;5047760;28;20473;-68
2023/07/25 02:45:50;;;;;;;14.00;5.55;;;;;;;13.32;100.00;100298.13;5040501;28;20052;-72
2023/07/25 02:48:17;;;;;;;14.93;5.75;;;;;;;13.28;100.00;100294.69;5046999;28;20048;-69
2023/07/25 02:50:44;;;;;;;18.08;6.28;;;;;;;13.26;100.00;100293.56;5044668;28;20072;-70
2023/07/25 02:53:10;;;;;;;20.85;5.78;;;;;;;13.20;100.00;100298.13;5024546;28;20048;-72
2023/07/25 02:55:38;;;;;;;13.93;5.82;;;;;;;13.11;100.00;100301.59;5028074;28;20066;-70
2023/07/25 02:58:05;;;;;;;18.70;6.38;;;;;;;13.09;100.00;100297.66;5044468;28;20052;-72
2023/07/25 03:00:32;;;;;;;13.52;6.00;;;;;;;13.09;100.00;100292.06;5045212;28;20467;-69
2023/07/25 03:02:58;;;;;;;16.30;6.15;;;;;;;13.08;100.00;100291.31;5044241;28;20094;-71
2023/07/25 03:05:27;;;;;;;18.50;5.32;;;;;;;13.09;100.00;100286.50;5047486;28;20049;-69
2023/07/25 03:07:54;;;;;;;16.00;5.45;;;;;;;13.05;100.00;100292.19;5043773;28;20064;-71
2023/07/25 03:10:20;;;;;;;19.23;6.05;;;;;;;13.08;100.00;100290.53;5039501;28;20106;-69
2023/07/25 03:12:47;;;;;;;15.00;6.05;;;;;;;13.03;100.00;100282.72;5030198;28;20049;-68
2023/07/25 03:15:13;;;;;;;17.30;6.03;;;;;;;12.91;100.00;100294.63;5047595;28;20475;-71
2023/07/25 03:17:40;;;;;;;13.35;5.85;;;;;;;12.86;100.00;100297.97;5046413;28;20053;-70
2023/07/25 03:20:10;;;;;;;13.52;5.82;;;;;;;12.81;100.00;100299.28;5046120;28;20041;-72
2023/07/25 03:22:37;;;;;;;20.75;5.78;;;;;;;12.72;100.00;100292.81;5046752;28;20041;-69
2023/07/25 03:25:03;;;;;;;14.95;6.82;;;;;;;12.68;100.00;100300.47;5047944;28;20072;-68
2023/07/25 03:27:30;;;;;;;16.25;6.63;;;;;;;12.67;100.00;100298.91;5047498;28;20229;-69
2023/07/25 03:29:56;;;;;;;14.98;6.15;;;;;;;12.61;100.00;100301.47;5047649;28;20477;-69
2023/07/25 03:32:23;;;;;;;22.65;6.70;;;;;;;12.62;100.00;100307.84;5047725;28;20041;-69
2023/07/25 03:34:53;;;;;;;12.82;5.57;;;;;;;12.64;100.00;100311.75;5046759;28;20076;-69
2023/07/25 03:37:19;;;;;;;16.60;6.05;;;;;;;12.66;100.00;100305.72;5028448;28;20080;-70
2023/07/25 03:39:46;;;;;;;14.90;6.13;;;;;;;12.60;100.00;100299.09;5047334;28;20068;-69
2023/07/25 03:42:12;;;;;;;11.77;5.88;;;;;;;12.55;100.00;100308.78;5047583;28;20585;-70
2023/07/25 03:44:39;;;;;;;14.48;5.85;;;;;;;12.49;100.00;100302.97;5047267;28;20045;-70
2023/07/25 03:47:05;;;;;;;17.20;5.88;;;;;;;12.38;100.00;100302.50;5047312;28;20090;-69
2023/07/25 03:49:32;;;;;;;16.50;6.65;;;;;;;12.39;100.00;100306.06;5047602;28;20044;-68
2023/07/25 03:51:58;;;;;;;18.15;6.13;;;;;;;12.39;100.00;100311.66;5046709;28;20045;-71
2023/07/25 03:54:25;;;;;;;15.90;6.03;;;;;;;12.39;100.00;100308.88;5046510;28;20080;-71
2023/07/25 03:56:52;;;;;;;19.80;6.18;;;;;;;12.38;100.00;100307.28;5047717;28;20073;-70
2023/07/25 03:59:18;;;;;;;14.40;6.88;;;;;;;12.41;100.00;100326.72;5047381;28;20432;-70
2023/07/25 04:01:45;;;;;;;17.90;6.55;;;;;;;12.44;100.00;100325.84;5047280;28;20060;-71
2023/07/25 04:04:12;;;;;;;19.95;7.38;;;;;;;12.44;100.00;100325.03;5047682;28;20504;-69
2023/07/25 04:06:38;;;;;;;17.52;6.78;;;;;;;12.44;100.00;100313.88;5047247;28;20489;-70
2023/07/25 04:09:05;;;;;;;14.75;7.45;;;;;;;12.49;100.00;100316.13;5046408;28;20063;-71
2023/07/25 04:11:32;;;;;;;15.82;7.00;;;;;;;12.53;100.00;100303.66;5036354;28;20087;-69
2023/07/25 04:13:59;;;;;;;15.10;7.22;;;;;;;12.60;100.00;100310.25;5043871;28;20045;-68
2023/07/25 04:16:25;;;;;;;19.50;6.45;;;;;;;12.60;100.00;100308.28;5038703;28;20131;-72
2023/07/25 04:18:52;;;;;;;17.08;7.70;;;;;;;12.61;100.00;100309.81;5046846;28;20552;-70
2023/07/25 04:21:18;;;;;;;14.50;6.57;;;;;;;12.63;100.00;100306.59;5039422;28;20098;-69
2023/07/25 04:23:45;;;;;;;15.00;5.65;;;;;;;12.65;100.00;100301.38;5051045;28;20131;-70
2023/07/25 04:26:11;;;;;;;13.93;6.25;;;;;;;12.67;100.00;100305.28;5049593;28;20107;-69
2023/07/25 04:28:38;;;;;;;18.38;6.55;;;;;;;12.70;100.00;100306.41;5040489;28;20132;-70
2023/07/25 04:31:04;;;;;;;13.10;6.30;;;;;;;12.70;100.00;100298.81;5042606;28;20102;-70
2023/07/25 04:33:31;;;;;;;18.30;6.57;;;;;;;12.73;100.00;100303.53;5050812;28;20448;-70
2023/07/25 04:35:57;;;;;;;18.02;6.88;;;;;;;12.74;100.00;100301.50;5050796;28;20048;-67
2023/07/25 04:38:24;;;;;;;18.10;6.68;;;;;;;12.76;100.00;100301.84;5040895;28;20045;-69
2023/07/25 04:40:51;;;;;;;13.52;5.60;;;;;;;12.77;100.00;100301.41;5031283;28;20054;-69
2023/07/25 04:43:20;;;;;;;18.02;6.75;;;;;;;12.77;100.00;100304.19;5028714;28;20525;-74
2023/07/25 04:45:46;;;;;;;14.63;6.05;;;;;;;12.76;100.00;100299.06;5029586;28;20135;-69
2023/07/25 04:48:20;;;;;;;16.25;5.93;;;;;;;12.73;100.00;100302.72;5030520;28;20145;-71
2023/07/25 04:50:46;;;;;;;15.75;7.05;;;;;;;12.71;100.00;100305.97;5030453;28;20091;-69
2023/07/25 04:53:13;;;;;;;14.00;5.40;;;;;;;12.74;100.00;100305.06;5030464;28;20049;-70
2023/07/25 04:55:40;;;;;;;18.33;5.90;;;;;;;12.77;100.00;100306.19;5030287;28;20041;-71
2023/07/25 04:58:06;;;;;;;14.73;6.15;;;;;;;12.78;100.00;100299.38;5011048;28;20045;-70
2023/07/25 05:00:33;;;;;;;15.23;5.57;;;;;;;12.76;100.00;100299.06;5029245;28;20041;-70
2023/07/25 05:03:00;;;;;;;16.02;6.93;;;;;;;12.63;100.00;100295.44;5030180;28;20045;-71
2023/07/25 05:05:26;;;;;;;18.83;7.88;;;;;;;12.60;100.00;100301.91;5030278;28;20053;-70
2023/07/25 05:07:53;;;;;;;20.67;8.50;;;;;;;12.52;100.00;100304.88;5030354;28;20426;-71
2023/07/25 05:10:19;;;;;;;16.48;6.70;;;;;;;12.43;100.00;100299.16;5029008;28;20054;-70
2023/07/25 05:12:46;;;;;;;21.05;8.68;;;;;;;12.45;100.00;100307.09;5029896;28;20073;-69
2023/07/25 05:15:12;;;;;;;22.55;8.65;;;;;;;12.52;100.00;100306.13;5030330;28;20106;-68
2023/07/25 05:17:39;;;;;;;20.45;8.55;;;;;;;12.54;100.00;100312.81;5025583;28;20073;-71
2023/07/25 05:20:06;;;;;;;20.92;8.65;;;;;;;12.57;100.00;100319.50;5024087;28;20573;-71
2023/07/25 05:22:33;;;;;;;19.50;7.45;;;;;;;12.55;100.00;100313.59;5029769;28;20133;-71
2023/07/25 05:24:59;;;;;;;18.20;7.38;;;;;;;12.60;100.00;100308.28;5030009;28;20127;-70
2023/07/25 05:27:26;;;;;;;16.95;7.93;;;;;;;12.68;100.00;100317.19;5028098;28;20123;-71
2023/07/25 05:29:52;;;;;;;17.52;7.28;;;;;;;12.78;100.00;100310.53;5027592;28;20127;-69
2023/07/25 05:32:21;;;;;;;19.85;6.78;;;;;;;12.77;100.00;100304.19;5021611;28;20068;-71
2023/07/25 05:34:47;;;;;;;18.42;7.00;;;;;;;12.73;100.00;100305.50;5029676;28;20068;-71
2023/07/25 05:37:18;;;;;;;19.90;7.13;;;;;;;12.79;100.00;100309.34;5029232;28;20076;-70
2023/07/25 05:39:44;;;;;;;19.25;8.13;;;;;;;12.84;100.00;100315.16;5047377;28;20071;-67
2023/07/25 05:42:11;;;;;;;17.05;8.13;;;;;;;12.91;100.00;100311.34;5046972;28;20045;-70
2023/07/25 05:44:38;;;;;;;18.48;7.70;;;;;;;12.95;100.00;100304.47;5049005;28;20122;-71
2023/07/25 05:47:05;;;;;;;16.63;7.28;;;;;;;13.01;100.00;100310.25;5049294;28;20069;-70
2023/07/25 05:49:31;;;;;;;19.67;7.65;;;;;;;13.09;100.00;100301.25;5049386;28;20045;-69
2023/07/25 05:51:58;;;;;;;16.25;7.57;;;;;;;13.11;100.00;100295.22;5044544;28;20493;-70
2023/07/25 05:54:25;;;;;;;17.35;6.75;;;;;;;13.20;100.00;100298.91;5047499;28;20049;-73
2023/07/25 05:56:51;;;;;;;14.52;6.40;;;;;;;13.29;100.00;100290.66;5048306;28;20099;-71
2023/07/25 05:59:25;;;;;;;19.65;5.88;;;;;;;13.41;100.00;100294.69;5046456;28;20045;-70
2023/07/25 06:01:52;;;;;;;13.60;5.25;;;;;;;13.54;100.00;100285.09;5048455;28;20037;-72
2023/07/25 06:04:19;;;;;;;14.88;4.53;;;;;;;13.60;100.00;100268.56;5041593;28;20045;-70
2023/07/25 06:06:45;;;;;;;14.02;4.70;;;;;;;13.75;100.00;100272.44;5039456;28;20076;-69
2023/07/25 06:09:15;;;;;;;15.50;4.18;;;;;;;13.82;100.00;100261.81;5048134;28;20095;-67
2023/07/25 06:11:42;;;;;;;14.80;4.32;;;;;;;13.96;100.00;100269.72;5050631;28;20055;-68
2023/07/25 06:14:08;;;;;;;16.35;5.00;;;;;;;14.07;100.00;100272.13;5046401;28;20080;-73
2023/07/25 06:16:35;;;;;;;18.88;4.25;;;;;;;14.17;100.00;100271.78;5044196;28;20865;-71
2023/07/25 06:19:02;;;;;;;15.02;4.25;;;;;;;14.28;100.00;100271.41;5048959;28;20128;-67
2023/07/25 06:21:29;;;;;;;12.75;4.45;;;;;;;14.39;100.00;100269.00;5046801;28;20847;-71
2023/07/25 06:23:56;;;;;;;15.38;3.50;;;;;;;14.46;100.00;100266.00;5048185;28;20590;-71
2023/07/25 06:26:23;;;;;;;13.27;3.25;;;;;;;14.53;100.00;100269.31;5047904;28;20099;-68
2023/07/25 06:28:51;;;;;;;13.65;3.42;;;;;;;14.60;100.00;100273.88;5021570;28;20041;-71
2023/07/25 06:31:17;;;;;;;9.32;4.15;;;;;;;14.60;100.00;100273.88;5048641;28;20044;-71
2023/07/25 06:33:44;;;;;;;15.52;3.42;;;;;;;14.65;100.00;100274.06;5048548;28;20049;-70
2023/07/25 06:36:10;;;;;;;12.70;3.40;;;;;;;14.70;100.00;100281.09;5048523;28;20084;-69
2023/07/25 06:38:37;;;;;;;11.10;3.88;;;;;;;14.66;100.00;100275.59;5041379;28;20048;-71
2023/07/25 06:41:03;;;;;;;16.15;4.03;;;;;;;14.68;100.00;100275.16;5048490;28;20102;-69
2023/07/25 06:43:30;;;;;;;18.38;3.65;;;;;;;14.70;100.00;100279.06;5030211;28;20134;-71
2023/07/25 06:45:56;;;;;;;14.75;4.35;;;;;;;14.73;100.00;100277.38;5046459;28;20052;-72
2023/07/25 06:48:23;;;;;;;13.23;3.95;;;;;;;14.77;100.00;100286.41;5047883;28;20103;-72
2023/07/25 06:50:50;;;;;;;11.75;3.13;;;;;;;14.77;100.00;100287.22;5047127;28;20621;-72
2023/07/25 06:53:16;;;;;;;14.63;3.58;;;;;;;14.80;100.00;100280.69;5046912;28;20471;-71
2023/07/25 06:55:44;;;;;;;14.43;3.95;;;;;;;14.86;100.00;100289.28;5045018;28;20118;-71
2023/07/25 06:58:10;;;;;;;17.15;3.92;;;;;;;14.93;100.00;100294.63;5047486;28;20045;-73
2023/07/25 07:00:40;;;;;;;10.68;3.60;;;;;;;14.94;100.00;100282.19;5047351;28;20052;-73
2023/07/25 07:03:07;;;;;;;14.15;3.35;;;;;;;14.98;100.00;100280.00;5035842;28;20045;-72
2023/07/25 07:05:34;;;;;;;14.35;3.30;;;;;;;15.03;100.00;100277.41;5047637;28;20049;-71
2023/07/25 07:08:03;;;;;;;13.20;2.83;;;;;;;15.12;100.00;100273.09;5045709;28;20056;-73
2023/07/25 07:10:32;;;;;;;10.98;2.45;;;;;;;15.17;100.00;100280.91;5047752;28;20041;-72
2023/07/25 07:12:59;;;;;;;10.23;2.97;;;;;;;15.28;100.00;100281.25;5041442;28;20060;-74
2023/07/25 07:15:26;;;;;;;14.77;3.83;;;;;;;15.38;100.00;100286.47;5027074;28;20099;-75
2023/07/25 07:17:53;;;;;;;11.82;3.15;;;;;;;15.48;100.00;100285.28;5029514;28;20423;-69
2023/07/25 07:20:20;;;;;;;10.82;3.10;;;;;;;15.60;100.00;100280.81;5029812;28;20056;-69
2023/07/25 07:22:47;;;;;;;12.68;2.80;;;;;;;15.78;100.00;100281.63;5047348;28;20102;-71
2023/07/25 07:25:13;;;;;;;16.80;3.03;;;;;;;15.90;100.00;100286.31;5047566;28;20578;-73
2023/07/25 07:27:40;;;;;;;10.73;2.75;;;;;;;15.98;100.00;100273.59;5029349;28;20049;-72
2023/07/25 07:30:07;;;;;;;9.70;2.80;;;;;;;16.11;100.00;100282.63;5046259;28;20056;-71
2023/07/25 07:32:34;;;;;;;14.52;3.65;;;;;;;16.22;100.00;100280.16;5046514;28;20048;-70
2023/07/25 07:35:00;;;;;;;12.90;2.92;;;;;;;16.33;100.00;100280.50;5046478;28;20067;-71
2023/07/25 07:37:27;;;;;;;9.18;2.50;;;;;;;16.44;100.00;100292.00;5046871;28;20578;-71
2023/07/25 07:39:53;;;;;;;9.93;2.65;;;;;;;16.44;100.00;100280.03;5043055;28;20061;-71
2023/07/25 07:42:20;;;;;;;12.70;3.15;;;;;;;16.16;100.00;100273.59;5037908;28;20049;-71
2023/07/25 07:44:46;;;;;;;15.68;3.17;;;;;;;16.29;100.00;100279.88;5046727;28;20516;-70
2023/07/25 07:47:13;;;;;;;24.75;5.40;;;;;;;16.32;100.00;100281.75;5038382;28;20049;-74
2023/07/25 07:49:39;;;;;;;11.43;3.60;;;;;;;16.44;100.00;100286.41;5039999;28;20099;-71
2023/07/25 07:52:06;;;;;;;10.35;2.65;;;;;;;16.62;100.00;100277.22;5046823;28;20102;-70
2023/07/25 07:54:45;;;;;;;20.92;3.80;;;;;;;16.79;100.00;100281.25;5042676;28;20916;-69
2023/07/25 07:57:11;;;;;;;12.95;2.63;;;;;;;16.94;100.00;100285.72;5038846;28;20061;-72
2023/07/25 07:59:38;;;;;;;11.98;2.72;;;;;;;16.87;100.00;100271.22;5045070;28;20037;-71
2023/07/25 08:02:05;;;;;;;14.75;3.22;;;;;;;16.93;100.00;100277.78;5049184;28;20044;-70
2023/07/25 08:04:32;;;;;;;15.88;3.60;;;;;;;17.03;100.00;100277.28;5043938;28;20124;-71
2023/07/25 08:06:58;;;;;;;10.02;2.88;;;;;;;17.12;100.00;100271.66;5045750;28;20493;-71
2023/07/25 08:09:25;;;;;;;10.93;3.13;;;;;;;17.20;100.00;100281.34;5050506;28;20064;-72
2023/07/25 08:11:52;;;;;;;13.70;2.88;;;;;;;17.14;100.00;100274.78;5050022;28;20052;-71
2023/07/25 08:14:18;;;;;;;10.73;2.80;;;;;;;17.21;100.00;100282.88;5048905;28;20501;-72
2023/07/25 08:16:45;;;;;;;14.65;3.67;;;;;;;17.21;100.00;100280.06;5053509;28;20099;-72
2023/07/25 08:19:11;;;;;;;6.93;2.65;;;;;;;17.24;100.00;100278.34;5047627;28;20131;-72
2023/07/25 08:21:38;;;;;;;9.43;2.50;;;;;;;17.26;100.00;100279.41;5049840;28;20073;-72
2023/07/25 08:24:05;;;;;;;8.30;2.90;;;;;;;17.27;100.00;100283.81;5043134;28;20053;-72
2023/07/25 08:26:32;;;;;;;9.45;3.00;;;;;;;17.36;100.00;100277.38;5048032;28;20068;-71
2023/07/25 08:28:58;;;;;;;11.77;2.88;;;;;;;17.34;100.00;100277.84;5044414;28;20141;-73
2023/07/25 08:31:25;;;;;;;9.38;2.42;;;;;;;17.36;100.00;100280.94;5046205;28;20041;-72
2023/07/25 08:33:51;;;;;;;14.50;3.35;;;;;;;17.53;100.00;100297.44;5051615;28;20080;-72
2023/07/25 08:36:18;;;;;;;13.85;2.42;;;;;;;17.52;100.00;100298.69;5049729;28;20049;-70
2023/07/25 08:38:44;;;;;;;11.48;3.95;;;;;;;17.48;100.00;100293.22;5052435;28;20056;-73
2023/07/25 08:41:24;;;;;;;6.40;2.35;;;;;;;17.52;100.00;100284.63;5046922;28;20143;-73
2023/07/25 08:43:52;;;;;;;15.02;2.80;;;;;;;17.58;100.00;100289.13;5046755;28;20049;-72
2023/07/25 08:46:20;;;;;;;9.88;2.78;;;;;;;17.66;100.00;100300.81;5029581;28;20049;-71
2023/07/25 08:48:48;;;;;;;13.98;2.92;;;;;;;17.63;100.00;100298.94;5046344;28;20079;-70
2023/07/25 08:51:22;;;;;;;11.90;2.97;;;;;;;17.60;100.00;100309.13;5052139;28;20055;-75
2023/07/25 08:54:13;;;;;;;8.00;2.90;;;;;;;17.69;100.00;100305.47;5050314;28;20678;-71
2023/07/25 08:56:40;;;;;;;6.68;2.42;;;;;;;17.78;100.00;100303.41;5023480;28;20080;-72
2023/07/25 08:59:07;;;;;;;11.07;2.90;;;;;;;17.66;100.00;100303.63;5049332;28;20048;-72
2023/07/25 09:01:33;;;;;;;10.20;2.83;;;;;;;17.69;100.00;100297.06;5049924;28;20087;-70
2023/07/25 09:04:03;;;;;;;12.57;3.42;;;;;;;17.75;100.00;100295.91;5041109;28;20045;-72
2023/07/25 09:06:30;;;;;;;11.85;2.78;;;;;;;17.89;100.00;100294.44;5048799;28;20099;-74
2023/07/25 09:08:57;;;;;;;9.52;2.90;;;;;;;17.99;100.00;100299.56;5050156;28;20081;-72
2023/07/25 09:11:25;;;;;;;12.20;2.80;;;;;;;18.05;100.00;100303.25;5048928;28;20057;-71
2023/07/25 09:13:53;;;;;;;11.40;3.30;;;;;;;18.11;100.00;100303.38;5042255;28;20040;-72
2023/07/25 09:16:19;;;;;;;14.20;3.40;;;;;;;18.10;100.00;100304.66;5049885;28;20056;-72
2023/07/25 09:18:46;;;;;;;11.30;2.63;;;;;;;18.09;100.00;100309.50;5049249;28;20088;-72
2023/07/25 09:21:15;;;;;;;11.75;3.90;;;;;;;18.03;100.00;100305.00;5042854;28;20095;-71
2023/07/25 09:23:56;;;;;;;7.75;2.42;;;;;;;17.97;100.00;100301.28;5039618;28;20128;-72
2023/07/25 09:26:27;;;;;;;9.45;2.55;;;;;;;17.80;100.00;100303.72;5041481;28;20102;-72
2023/07/25 09:28:58;;;;;;;12.05;3.08;;;;;;;17.72;100.00;100296.09;5042212;28;20052;-70
2023/07/25 09:31:27;;;;;;;13.95;3.00;;;;;;;17.59;100.00;100298.34;5048953;28;20123;-72
2023/07/25 09:33:56;;;;;;;9.60;2.83;;;;;;;17.33;100.00;100298.78;5039659;28;20147;-70
2023/07/25 09:36:22;;;;;;;10.68;2.78;;;;;;;17.18;100.00;100300.69;5045859;28;20048;-71
2023/07/25 09:38:54;;;;;;;8.43;2.88;;;;;;;17.34;100.00;100300.31;5048976;28;20049;-72
2023/07/25 09:41:24;;;;;;;8.48;2.80;;;;;;;17.54;100.00;100296.97;5049797;28;20059;-70
2023/07/25 09:43:51;;;;;;;9.70;2.80;;;;;;;17.68;100.00;100296.25;5049640;28;20099;-72
2023/07/25 09:46:19;;;;;;;10.40;2.30;;;;;;;17.74;100.00;100299.19;5048722;28;20049;-70
2023/07/25 09:48:50;;;;;;;7.03;2.30;;;;;;;17.97;100.00;100295.66;5049455;28;20057;-71
2023/07/25 09:51:17;;;;;;;10.88;2.50;;;;;;;18.29;100.00;100303.28;5048465;28;20040;-71
2023/07/25 09:53:49;;;;;;;9.90;2.42;;;;;;;18.43;100.00;100294.09;5049303;28;20053;-70
2023/07/25 09:56:16;;;;;;;12.05;3.42;;;;;;;18.58;100.00;100304.13;5046927;28;20044;-70
2023/07/25 09:58:42;;;;;;;9.02;2.65;;;;;;;18.61;100.00;100300.34;5048200;28;20052;-70
2023/07/25 10:01:30;;;;;;;11.73;2.30;;;;;;;18.48;100.00;100299.84;5048399;28;20068;-73
2023/07/25 10:03:57;;;;;;;8.77;2.63;;;;;;;18.35;100.00;100304.16;5049057;28;20045;-70
2023/07/25 10:06:25;;;;;;;11.38;2.47;;;;;;;18.14;100.00;100299.63;5048019;28;20102;-70
2023/07/25 10:08:53;;;;;;;8.60;2.72;;;;;;;18.13;100.00;100303.69;5045905;28;20052;-71
2023/07/25 10:11:22;;;;;;;11.05;2.92;;;;;;;18.09;100.00;100298.22;5047899;28;20052;-71
2023/07/25 10:13:50;;;;;;;17.45;3.63;;;;;;;17.92;100.00;100294.25;5044965;28;20041;-69
2023/07/25 10:16:19;;;;;;;10.45;2.97;;;;;;;17.90;100.00;100296.78;5044467;28;20041;-72
2023/07/25 10:18:53;;;;;;;14.95;2.97;;;;;;;17.81;100.00;100288.38;5024494;28;20057;-71
2023/07/25 10:21:25;;;;;;;9.75;2.70;;;;;;;17.76;100.00;100293.88;5050932;28;20049;-71
2023/07/25 10:23:57;;;;;;;13.90;2.78;;;;;;;17.64;100.00;100301.28;5047671;28;20041;-72
2023/07/25 10:26:26;;;;;;;11.40;2.90;;;;;;;17.63;100.00;100299.72;5046778;28;20049;-72
2023/07/25 10:28:52;;;;;;;10.88;2.80;;;;;;;17.57;100.00;100312.88;5045525;28;20472;-72
2023/07/25 10:31:30;;;;;;;7.32;2.72;;;;;;;17.55;100.00;100309.00;5039068;28;20515;-73
2023/07/25 10:34:00;;;;;;;10.43;2.58;;;;;;;17.59;100.00;100309.59;5041304;28;20045;-72
2023/07/25 10:36:26;;;;;;;15.88;3.33;;;;;;;17.57;100.00;100312.09;5046293;28;20076;-72
2023/07/25 10:39:09;;;;;;;9.57;2.63;;;;;;;17.56;100.00;100308.50;5044938;28;20052;-72
2023/07/25 10:41:36;;;;;;;11.98;3.08;;;;;;;17.58;100.00;100303.19;5036896;28;20081;-73
2023/07/25 10:44:04;;;;;;;9.20;2.05;;;;;;;17.68;100.00;100309.56;5047949;28;20461;-72
2023/07/25 10:46:33;;;;;;;9.50;2.60;;;;;;;17.69;100.00;100303.47;5030398;28;20421;-72
2023/07/25 10:49:48;;;;;;;7.78;1.60;;;;;;;17.77;100.00;100309.50;5048611;28;20079;-74
2023/07/25 10:52:41;;;;;;;12.05;2.70;;;;;;;17.98;100.00;100297.22;5037469;28;20539;-72
2023/07/25 10:55:11;;;;;;;7.93;2.15;;;;;;;18.09;100.00;100289.03;5042563;28;20562;-71
2023/07/25 10:57:37;;;;;;;9.48;2.50;;;;;;;18.31;100.00;100298.72;5046682;28;20075;-70
2023/07/25 11:00:10;;;;;;;10.10;3.42;;;;;;;18.40;100.00;100311.94;5047594;28;20040;-70
2023/07/25 11:02:40;;;;;;;10.90;2.50;;;;;;;18.39;100.00;100311.16;5040561;28;20040;-72
2023/07/25 11:05:13;;;;;;;8.27;2.42;;;;;;;18.21;100.00;100311.28;5030581;28;20500;-72
2023/07/25 11:07:40;;;;;;;10.15;2.50;;;;;;;18.13;100.00;100309.31;5046706;28;20076;-73
2023/07/25 11:10:07;;;;;;;10.60;2.78;;;;;;;18.01;100.00;100305.50;5047752;28;20057;-71
2023/07/25 11:12:34;;;;;;;10.20;2.20;;;;;;;17.94;100.00;100305.06;5047746;28;20390;-72
2023/07/25 11:15:01;;;;;;;7.97;2.63;;;;;;;17.97;100.00;100302.09;5047915;28;20493;-72
2023/07/25 11:17:28;;;;;;;7.43;2.40;;;;;;;17.86;100.00;100301.81;5026329;28;20131;-72
2023/07/25 11:20:13;;;;;;;9.85;2.38;;;;;;;17.66;100.00;100304.41;5047601;28;20052;-71
2023/07/25 11:22:40;;;;;;;;;;;;;;;17.66;100.00;100310.03;5046820;28;20049;-73
2023/07/25 11:25:08;;;;;;;14.43;3.10;;;;;;;17.63;100.00;100316.59;5047731;28;20006;-74
2023/07/25 11:28:00;;;;;;;9.30;2.95;;;;;;;17.49;100.00;100303.25;5038300;28;20150;-71
2023/07/25 11:30:27;;;;;;;7.80;2.97;;;;;;;17.64;100.00;100306.91;5046602;28;20041;-74
2023/07/25 11:32:54;;;;;;;12.40;3.28;;;;;;;17.69;100.00;100305.47;5034123;28;20040;-73
2023/07/25 11:35:24;;;;;;;5.57;2.78;;;;;;;17.71;100.00;100302.97;5043132;28;20048;-74
2023/07/25 11:37:59;;;;;;;10.30;2.53;;;;;;;17.73;100.00;100306.09;5050656;28;20633;-72
2023/07/25 11:40:28;;;;;;;8.05;2.67;;;;;;;17.87;100.00;100300.53;5052138;28;20064;-73
2023/07/25 11:42:56;;;;;;;14.07;2.58;;;;;;;18.01;100.00;100296.25;5040793;28;20061;-73
2023/07/25 11:45:24;;;;;;;6.97;2.90;;;;;;;18.24;100.00;100301.91;5051166;28;20076;-70
2023/07/25 11:47:52;;;;;;;8.52;2.55;;;;;;;18.63;100.00;100302.69;5043771;28;20049;-75
2023/07/25 11:50:20;;;;;;;10.10;2.80;;;;;;;19.09;100.00;100301.00;5046550;28;20746;-72
2023/07/25 11:52:55;;;;;;;11.65;3.22;;;;;;;19.56;100.00;100307.22;5050040;28;20049;-74
2023/07/25 11:55:22;;;;;;;7.40;2.05;;;;;;;20.00;100.00;100295.81;5045240;28;20049;-73
2023/07/25 11:57:49;;;;;;;9.70;2.10;;;;;;;20.26;100.00;100301.56;5050461;28;20049;-73
2023/07/25 12:00:16;;;;;;;6.35;1.90;;;;;;;20.69;100.00;100300.53;5045078;28;20102;-73
2023/07/25 12:02:43;;;;;;;8.98;1.85;;;;;;;21.28;100.00;100298.84;5049579;28;20147;-73
2023/07/25 12:05:26;;;;;;;7.93;1.48;;;;;;;21.61;100.00;100307.59;5051119;28;20658;-73
2023/07/25 12:08:00;;;;;;;6.97;1.67;;;;;;;21.63;100.00;100299.38;5047126;28;20049;-74
2023/07/25 12:10:28;;;;;;;13.35;2.25;;;;;;;21.79;100.00;100307.22;5041813;28;20143;-73
2023/07/25 12:12:56;;;;;;;9.27;1.73;;;;;;;22.07;100.00;100308.94;5050170;28;20052;-74
2023/07/25 12:15:24;;;;;;;7.85;1.40;;;;;;;22.35;100.00;100308.34;5051331;28;20078;-74
2023/07/25 12:17:50;;;;;;;4.22;1.23;;;;;;;22.51;100.00;100316.88;5050189;28;20135;-74
2023/07/25 12:20:19;;;;;;;4.80;1.27;;;;;;;22.89;100.00;100306.97;5036142;28;20045;-71
2023/07/25 12:22:47;;;;;;;3.63;1.20;;;;;;;22.98;100.00;100312.44;5045213;28;20052;-71
2023/07/25 12:25:22;;;;;;;9.98;2.47;;;;;;;23.11;100.00;100315.53;5042653;28;20045;-73
2023/07/25 12:27:52;;;;;;;4.38;1.13;;;;;;;23.29;100.00;100312.19;5046380;28;20098;-72
2023/07/25 12:30:18;;;;;;;8.32;1.50;;;;;;;23.39;100.00;100319.16;5049028;28;20623;-71
2023/07/25 12:32:45;;;;;;;4.07;1.10;;;;;;;23.30;100.00;100319.41;5033591;28;20084;-73
2023/07/25 12:35:12;;;;;;;4.55;1.45;;;;;;;23.22;100.00;100312.72;5050690;28;20060;-72